• Join FlightAware (Why Join?)
  • Login
  • US Flag 
05:34AM EDT


 

Airport Tracker/Info


-or-


 

Live Flight TrackerFlight Track Log ✈ FLG3757 ✈ 09-Oct-2013 ✈ KBGM - KDTW

Flight Track Log - Related Links

Times and Time Zones

All times are in EDT time to prevent confusion due to time zone crossing. See the FLG3757 flight status page for this flight to view local times or setup timezone preferences in your user account.

Time Position Orientation Groundspeed Altitude Reporting Facility
EDT Latitude Longitude Course Direction KTS MPH feet Rate Location/Type
06:14AM 42.1217 -76.0189 289° West 219 252 5,700  Level New York Center
06:15AM 42.0867 -76.1083 242° Southwest 243 280 8,500 2,400 Climbing New York Center
06:16AM 42.1064 -76.2217 283° West 254 292 10,500 1,620 Climbing New York Center
06:17AM 42.1639 -76.3833 296° West 354 407 12,500 1,680 Climbing Cleveland Center
06:18AM 42.2278 -76.6293 289° West  Level Estimated
06:18AM 42.2119 -76.5208 295° West 367 422 14,600  Level Cleveland Center
06:19AM 42.2569 -76.6472 296° West 373 429 16,400 1,500 Climbing Cleveland Center
06:20AM 42.3022 -76.7750 296° West 377 434 17,700 1,380 Climbing Cleveland Center
06:21AM 42.3450 -76.9006 295° West 373 429 19,200 1,320 Climbing Cleveland Center
06:22AM 42.3900 -77.0283 296° West 375 432 20,500 1,140 Climbing Cleveland Center
06:23AM 42.4339 -77.1578 295° West 378 435 21,600 960 Climbing Cleveland Center
06:24AM 42.4781 -77.2878 295° West 381 438 22,500 840 Climbing Cleveland Center
06:25AM 42.5250 -77.4231 295° West 392 451 23,400 780 Climbing Cleveland Center
06:26AM 42.5767 -77.5756 295° West 398 458 24,200 720 Climbing Cleveland Center
06:27AM 42.6239 -77.7158 295° West 407 468 24,900 660 Climbing Cleveland Center
06:28AM 42.6367 -77.8642 277° West 419 482 25,600 600 Climbing Cleveland Center
06:29AM 42.6428 -78.0186 273° West 415 478 26,200 540 Climbing Cleveland Center
06:30AM 42.6483 -78.1756 273° West 417 480 26,700 480 Climbing Cleveland Center
06:31AM 42.6542 -78.3356 273° West 423 487 27,200 540 Climbing Cleveland Center
06:32AM 42.6606 -78.5286 273° West 426 490 27,900 360 Climbing Cleveland Center
06:33AM 42.6661 -78.6917 273° West 432 497 28,000  Climbing Cleveland Center
06:34AM 42.6711 -78.8550 272° West 433 498 28,000  Level Cleveland Center
06:35AM 42.6744 -79.0200 272° West 438 504 28,000  Level Cleveland Center
06:36AM 42.6783 -79.1850 272° West 439 505 28,000  Level Cleveland Center
06:37AM 42.6833 -79.3517 272° West 441 507 28,000  Level Cleveland Center
06:39AM 42.6869 -79.5186 272° West 443 510 28,000  Level Cleveland Center
06:40AM 42.6897 -79.6853 271° West 443 510 28,000  Level Cleveland Center
06:41AM 42.6928 -79.8525 271° West 443 510 28,000  Level Cleveland Center
06:42AM 42.6944 -80.0375 271° West 441 507 28,000  Level Cleveland Center
06:43AM 42.6975 -80.2061 271° West 443 510 28,000  Level Cleveland Center
06:44AM 42.7006 -80.3744 271° West 444 511 28,000  Level Cleveland Center
06:45AM 42.7031 -80.5417 271° West 442 509 28,000  Level Cleveland Center
06:46AM 42.7047 -80.7111 271° West 445 512 28,000 -540 Level Cleveland Center
06:47AM 42.7056 -80.8811 270° West 447 514 27,000 -1,020 Descending Cleveland Center
06:48AM 42.6881 -81.0436 262° West 435 501 26,000 -1,080 Descending Cleveland Center
06:49AM 42.6703 -81.2044 262° West 428 493 24,900 -1,080 Descending Cleveland Center
06:50AM 42.6517 -81.3653 261° West 428 493 23,900 -1,380 Descending Cleveland Center
06:51AM 42.6314 -81.5456 261° West 416 479 22,200 -1,620 Descending Cleveland Center
06:52AM 42.6131 -81.6969 261° West 407 468 20,700 -1,440 Descending Cleveland Center
06:53AM 42.5978 -81.8281 261° West 398 458 19,300 -1,440 Descending Cleveland Center
06:54AM 42.5806 -81.9728 261° West 390 449 17,800 -1,320 Descending Cleveland Center
06:55AM 42.5628 -82.1122 260° West 381 438 16,700 -1,380 Descending Cleveland Center
06:55AM 42.5514 -82.2181 262° West 378 435 15,600 -1,920 Descending Cleveland Center
06:56AM 42.5417 -82.2789 258° West 376 433 14,800 -1,560 Descending Cleveland Center
06:57AM 42.5325 -82.3714 262° West 367 422 13,900 -1,500 Descending Cleveland Center
06:57AM 42.5256 -82.4139 258° West 369 425 13,300 -1,440 Descending Cleveland Center
06:58AM 42.5142 -82.5161 261° West 359 413 12,300 -1,320 Descending Cleveland Center
06:58AM 42.5072 -82.5453 252° West 361 415 12,000 -780 Descending Cleveland Center
06:59AM 42.4789 -82.6306 246° West 346 398 11,600 -1,020 Descending Cleveland Center
06:59AM 42.4653 -82.6625 240° Southwest 349 402 11,000 -1,680 Descending Cleveland Center
06:59AM 42.4447 -82.7278 247° West 303 349 10,100 -1,500 Descending Cleveland Center
07:00AM 42.4289 -82.7661 241° Southwest 321 369 9,500 -1,320 Descending Cleveland Center
07:00AM 42.4131 -82.8169 247° West 285 328 8,900 -1,380 Descending Cleveland Center
07:01AM 42.4047 -82.8639 256° West 284 327 8,100 -1,440 Descending Cleveland Center
07:02AM 42.3978 -82.9392 263° West 287 330 7,200 -1,500 Descending Cleveland Center
07:02AM 42.3942 -82.9700 261° West 283 326 6,600 -1,140 Descending Cleveland Center
07:03AM 42.3875 -83.0508 264° West 286 329 6,100 -600 Descending Cleveland Center
07:03AM 42.3831 -83.0756 256° West 285 328 6,000 -1,320 Descending Cleveland Center
07:04AM 42.3631 -83.1519 251° West 280 322 4,800 -1,980 Descending Cleveland Center
07:04AM 42.3506 -83.1911 247° West 279 321 4,000 -1,920 Descending Cleveland Center
07:05AM 42.3303 -83.2519 246° West 247 284 2,700 -1,380 Descending Cleveland Center
07:05AM 42.3147 -83.2664 214° Southwest 244 281 2,600 -420 Descending Cleveland Center
07:06AM 42.2872 -83.2939 216° Southwest 151 174 2,300 -600 Descending Cleveland Center
07:06AM 42.2761 -83.2994 200° South 172 198 2,000 -1,020 Descending Cleveland Center
07:07AM 42.2561 -83.3178 214° Southwest 129 148 1,300 -900 Descending Cleveland Center
07:07AM 42.2447 -83.3217 194° South 144 166 1,100 -540 Descending Cleveland Center
07:09AM 42.2124 -83.3534 246° West  Level Estimated
07:16AM 42.2124 -83.3534 246° West  Level Estimated
07:17AM 42.2124 -83.3534 246° West  Level Estimated